Time;durP1;ratioP1;P1;durP2;ratioP2;P2;SDS_P1;SDS_P2;PMS_P1;PMS_P2;Temp;Humidity;BMP_temperature;BMP_pressure;BME280_temperature;BME280_humidity;BME280_pressure;Samples;Min_cycle;Max_cycle;Signal;HPM_P1;HPM_P2
2022/08/22 00:00:11;;;;;;;0.10;0.10;;;;;;;;;;4880946;29;20047;-91
2022/08/22 00:03:03;;;;;;;0.10;0.10;;;;;;;;;;4881092;29;20044;-91
2022/08/22 00:05:35;;;;;;;0.10;0.10;;;;;;;;;;4881115;29;20048;-91
2022/08/22 00:08:20;;;;;;;0.10;0.10;;;;;;;;;;4880766;29;20121;-92
2022/08/22 00:11:05;;;;;;;0.10;0.10;;;;;;;;;;4896451;29;20106;-92
2022/08/22 00:13:58;;;;;;;0.10;0.10;;;;;;;;;;4896986;29;20127;-92
2022/08/22 00:16:33;;;;;;;0.10;0.10;;;;;;;;;;4851438;29;20049;-92
2022/08/22 00:19:11;;;;;;;0.10;0.10;;;;;;;;;;4896990;29;20048;-92
2022/08/22 00:21:52;;;;;;;0.10;0.10;;;;;;;;;;4896053;29;20063;-93
2022/08/22 00:24:22;;;;;;;0.20;0.20;;;;;;;;;;4896464;29;20053;-92
2022/08/22 00:26:50;;;;;;;0.10;0.10;;;;;;;;;;4896166;29;20100;-92
2022/08/22 00:29:22;;;;;;;0.10;0.10;;;;;;;;;;4896059;29;20050;-92
2022/08/22 00:31:48;;;;;;;;;;;;;;;;;;4880955;29;20044;-92
2022/08/22 00:34:33;;;;;;;0.10;0.10;;;;;;;;;;4880569;29;19919;-92
2022/08/22 00:36:59;;;;;;;0.10;0.10;;;;;;;;;;4896502;29;20049;-90
2022/08/22 00:39:31;;;;;;;0.10;0.10;;;;;;;;;;4880378;29;20051;-91
2022/08/22 00:42:12;;;;;;;0.10;0.10;;;;;;;;;;4896324;29;20046;-91
2022/08/22 00:44:44;;;;;;;0.10;0.10;;;;;;;;;;4895765;29;20127;-91
2022/08/22 00:47:10;;;;;;;;;;;;;;;;;;4896267;29;20146;-92
2022/08/22 00:49:55;;;;;;;0.10;0.10;;;;;;;;;;4880514;29;20370;-91
2022/08/22 00:52:40;;;;;;;0.10;0.10;;;;;;;;;;4895942;29;20159;-92
2022/08/22 00:55:24;;;;;;;0.10;0.10;;;;;;;;;;4895756;29;20140;-92
2022/08/22 00:58:23;;;;;;;0.10;0.10;;;;;;;;;;4896081;29;20076;-92
2022/08/22 01:00:53;;;;;;;0.10;0.10;;;;;;;;;;4895901;29;20131;-93
2022/08/22 01:03:19;;;;;;;0.10;0.10;;;;;;;;;;4898050;29;20123;-93
2022/08/22 01:06:04;;;;;;;0.10;0.10;;;;;;;;;;4884053;29;20044;-93
2022/08/22 01:08:37;;;;;;;0.10;0.10;;;;;;;;;;4899861;29;20157;-93
2022/08/22 01:11:32;;;;;;;0.10;0.10;;;;;;;;;;4899978;29;20063;-91
2022/08/22 01:14:04;;;;;;;0.10;0.10;;;;;;;;;;4835610;29;20074;-91
2022/08/22 01:16:35;;;;;;;0.10;0.10;;;;;;;;;;4899537;29;20155;-91
2022/08/22 01:19:05;;;;;;;0.10;0.10;;;;;;;;;;4883746;29;20563;-91
2022/08/22 01:21:51;;;;;;;0.10;0.10;;;;;;;;;;4883845;29;20564;-91
2022/08/22 01:27:52;;;;;;;0.10;0.10;;;;;;;;;;4867663;29;20135;-90
2022/08/22 01:30:28;;;;;;;0.20;0.20;;;;;;;;;;4899224;29;20052;-92
2022/08/22 01:33:10;;;;;;;0.10;0.10;;;;;;;;;;4899159;29;20051;-92
2022/08/22 01:35:35;;;;;;;0.10;0.10;;;;;;;;;;4898862;29;20065;-90
2022/08/22 01:38:20;;;;;;;0.10;0.10;;;;;;;;;;4899322;29;20059;-90
2022/08/22 01:41:02;;;;;;;0.10;0.10;;;;;;;;;;4899220;29;20116;-89
2022/08/22 01:43:28;;;;;;;0.10;0.10;;;;;;;;;;4883305;29;20047;-90
2022/08/22 01:45:57;;;;;;;0.10;0.10;;;;;;;;;;4883101;29;20285;-90
2022/08/22 01:48:42;;;;;;;0.10;0.10;;;;;;;;;;4883172;29;20080;-90
2022/08/22 01:51:11;;;;;;;0.10;0.10;;;;;;;;;;4883133;29;20491;-89
2022/08/22 01:53:42;;;;;;;0.10;0.10;;;;;;;;;;4898577;29;20048;-88
2022/08/22 01:56:14;;;;;;;0.10;0.10;;;;;;;;;;4883375;29;20575;-89
2022/08/22 01:58:45;;;;;;;0.10;0.10;;;;;;;;;;4883238;29;20044;-89
2022/08/22 02:01:32;;;;;;;0.10;0.10;;;;;;;;;;4883780;29;20152;-90
2022/08/22 02:03:59;;;;;;;0.10;0.10;;;;;;;;;;4883640;29;20423;-90
2022/08/22 02:06:51;;;;;;;0.10;0.10;;;;;;;;;;4898988;29;20104;-90
2022/08/22 02:09:30;;;;;;;0.10;0.10;;;;;;;;;;4865581;29;20159;-91
2022/08/22 02:11:59;;;;;;;0.10;0.10;;;;;;;;;;4898401;29;20072;-90
2022/08/22 02:14:35;;;;;;;0.10;0.10;;;;;;;;;;4882343;29;20051;-92
2022/08/22 02:17:09;;;;;;;0.10;0.10;;;;;;;;;;4898318;29;20056;-91
2022/08/22 02:19:38;;;;;;;0.10;0.10;;;;;;;;;;4898304;29;20044;-90
2022/08/22 02:22:06;;;;;;;0.28;0.28;;;;;;;;;;4882720;29;20040;-89
2022/08/22 02:24:32;;;;;;;0.10;0.10;;;;;;;;;;4882781;29;20080;-89
2022/08/22 02:27:15;;;;;;;0.20;0.20;;;;;;;;;;4882411;29;20079;-89
2022/08/22 02:29:41;;;;;;;0.10;0.10;;;;;;;;;;4882663;29;20405;-89
2022/08/22 02:32:26;;;;;;;0.10;0.10;;;;;;;;;;4882588;29;20040;-90
2022/08/22 02:35:02;;;;;;;0.10;0.10;;;;;;;;;;4897547;29;20552;-90
2022/08/22 02:37:39;;;;;;;0.10;0.10;;;;;;;;;;4898125;29;20049;-90
2022/08/22 02:40:13;;;;;;;0.10;0.10;;;;;;;;;;4882306;29;20048;-90
2022/08/22 02:42:50;;;;;;;0.10;0.10;;;;;;;;;;4882224;29;20500;-89
2022/08/22 02:45:30;;;;;;;0.10;0.10;;;;;;;;;;4897841;29;20166;-90
2022/08/22 02:48:00;;;;;;;0.10;0.10;;;;;;;;;;4882110;29;20112;-89
2022/08/22 02:50:30;;;;;;;0.10;0.10;;;;;;;;;;4882085;29;20059;-89
2022/08/22 02:53:03;;;;;;;0.10;0.10;;;;;;;;;;4897576;29;20045;-90
2022/08/22 02:55:49;;;;;;;0.10;0.10;;;;;;;;;;4881972;29;20055;-92
2022/08/22 02:58:15;;;;;;;0.10;0.10;;;;;;;;;;4866333;29;20191;-91
2022/08/22 03:00:44;;;;;;;0.10;0.10;;;;;;;;;;4897389;29;20139;-90
2022/08/22 03:03:23;;;;;;;0.20;0.20;;;;;;;;;;4897263;29;20093;-91
2022/08/22 03:05:49;;;;;;;0.10;0.10;;;;;;;;;;4881984;29;20055;-90
2022/08/22 03:08:26;;;;;;;0.10;0.10;;;;;;;;;;4897266;29;20049;-90
2022/08/22 03:10:55;;;;;;;0.10;0.10;;;;;;;;;;4881716;29;20082;-89
2022/08/22 03:13:25;;;;;;;0.10;0.10;;;;;;;;;;4881695;29;20504;-91
2022/08/22 03:16:18;;;;;;;0.10;0.10;;;;;;;;;;4881602;29;20040;-90
2022/08/22 03:18:48;;;;;;;0.10;0.10;;;;;;;;;;4852081;29;20045;-90
2022/08/22 03:21:33;;;;;;;0.10;0.10;;;;;;;;;;4881471;29;20056;-90
2022/08/22 03:24:05;;;;;;;0.10;0.10;;;;;;;;;;4896858;29;20072;-90
2022/08/22 03:26:44;;;;;;;0.10;0.10;;;;;;;;;;4880437;29;20132;-90
2022/08/22 03:29:16;;;;;;;0.10;0.10;;;;;;;;;;4881429;29;20380;-92
2022/08/22 03:32:02;;;;;;;0.10;0.10;;;;;;;;;;4897189;29;20048;-89
2022/08/22 03:34:28;;;;;;;0.10;0.10;;;;;;;;;;4880903;29;20080;-89
2022/08/22 03:36:58;;;;;;;0.10;0.10;;;;;;;;;;4881410;29;20052;-89
2022/08/22 03:39:35;;;;;;;0.10;0.10;;;;;;;;;;4896776;29;20049;-89
2022/08/22 03:42:14;;;;;;;0.10;0.10;;;;;;;;;;4881174;29;20047;-89
2022/08/22 03:44:44;;;;;;;0.10;0.10;;;;;;;;;;4881053;29;20047;-90
2022/08/22 03:47:29;;;;;;;0.10;0.10;;;;;;;;;;4896685;29;20052;-89
2022/08/22 03:49:55;;;;;;;0.10;0.10;;;;;;;;;;4881009;29;20391;-89
2022/08/22 03:52:21;;;;;;;0.10;0.10;;;;;;;;;;4880996;29;20040;-89
2022/08/22 03:54:51;;;;;;;0.10;0.10;;;;;;;;;;4880934;29;20508;-89
2022/08/22 03:57:49;;;;;;;0.10;0.10;;;;;;;;;;4896281;29;20079;-89
2022/08/22 04:00:17;;;;;;;0.10;0.10;;;;;;;;;;4860300;29;20388;-89
2022/08/22 04:03:03;;;;;;;0.10;0.10;;;;;;;;;;4881017;29;20056;-89
2022/08/22 04:05:32;;;;;;;0.10;0.10;;;;;;;;;;4896024;29;20051;-89
2022/08/22 04:08:17;;;;;;;0.10;0.10;;;;;;;;;;4880663;29;20044;-89
2022/08/22 04:10:58;;;;;;;0.10;0.10;;;;;;;;;;4896505;29;20484;-90
2022/08/22 04:13:43;;;;;;;0.20;0.20;;;;;;;;;;4896116;29;20096;-89
2022/08/22 04:16:19;;;;;;;0.10;0.10;;;;;;;;;;4896374;29;20040;-90
2022/08/22 04:18:51;;;;;;;0.10;0.10;;;;;;;;;;4896125;29;20053;-88
2022/08/22 04:21:24;;;;;;;0.10;0.10;;;;;;;;;;4880893;29;20425;-90
2022/08/22 04:23:50;;;;;;;0.10;0.10;;;;;;;;;;4895881;29;20131;-91
2022/08/22 04:26:18;;;;;;;0.10;0.10;;;;;;;;;;4896011;29;20110;-90
2022/08/22 04:28:48;;;;;;;0.10;0.10;;;;;;;;;;4880483;29;20488;-90
2022/08/22 04:31:16;;;;;;;0.10;0.10;;;;;;;;;;4896052;29;20075;-90
2022/08/22 04:33:45;;;;;;;0.10;0.10;;;;;;;;;;4896224;29;20072;-91
2022/08/22 04:36:16;;;;;;;0.10;0.10;;;;;;;;;;4895989;29;20113;-91
2022/08/22 04:38:59;;;;;;;0.10;0.10;;;;;;;;;;4896118;29;20143;-91
2022/08/22 04:41:37;;;;;;;0.10;0.10;;;;;;;;;;4880627;29;20525;-90
2022/08/22 04:44:05;;;;;;;0.10;0.10;;;;;;;;;;4895380;29;20056;-90
2022/08/22 04:46:50;;;;;;;0.10;0.10;;;;;;;;;;4895995;29;20044;-90
2022/08/22 04:49:16;;;;;;;0.10;0.10;;;;;;;;;;4880089;29;20064;-89
2022/08/22 04:51:45;;;;;;;0.10;0.10;;;;;;;;;;4880374;29;20044;-92
2022/08/22 04:54:17;;;;;;;0.10;0.10;;;;;;;;;;4880278;29;20055;-88
2022/08/22 04:57:02;;;;;;;0.10;0.10;;;;;;;;;;4896319;29;20049;-89
2022/08/22 04:59:28;;;;;;;0.10;0.10;;;;;;;;;;4880166;29;20101;-88
2022/08/22 05:01:55;;;;;;;0.10;0.10;;;;;;;;;;4880083;29;20471;-88
2022/08/22 05:04:23;;;;;;;0.10;0.10;;;;;;;;;;4895760;29;20045;-88
2022/08/22 05:06:53;;;;;;;0.10;0.10;;;;;;;;;;4880105;29;20041;-88
2022/08/22 05:09:21;;;;;;;0.10;0.10;;;;;;;;;;4880169;29;20512;-88
2022/08/22 05:11:48;;;;;;;0.10;0.10;;;;;;;;;;4879962;29;20036;-88
2022/08/22 05:14:16;;;;;;;0.10;0.10;;;;;;;;;;4895505;29;20041;-88
2022/08/22 05:16:42;;;;;;;0.10;0.10;;;;;;;;;;4880242;29;20044;-88
2022/08/22 05:19:15;;;;;;;0.10;0.10;;;;;;;;;;4895498;29;20048;-88
2022/08/22 05:21:41;;;;;;;0.10;0.10;;;;;;;;;;4880415;29;20518;-89
2022/08/22 05:24:11;;;;;;;0.10;0.10;;;;;;;;;;4879942;29;20110;-88
2022/08/22 05:26:38;;;;;;;0.10;0.10;;;;;;;;;;4895661;29;20395;-89
2022/08/22 05:29:06;;;;;;;0.10;0.10;;;;;;;;;;4895284;29;20040;-88
2022/08/22 05:31:34;;;;;;;0.10;0.10;;;;;;;;;;4895376;29;20124;-88
2022/08/22 05:34:04;;;;;;;0.10;0.10;;;;;;;;;;4879832;29;20101;-88
2022/08/22 05:36:32;;;;;;;0.10;0.10;;;;;;;;;;4895283;29;20449;-90
2022/08/22 05:39:17;;;;;;;0.10;0.10;;;;;;;;;;4879834;29;20067;-88
2022/08/22 05:41:43;;;;;;;0.10;0.10;;;;;;;;;;4879887;29;20056;-88
2022/08/22 05:44:16;;;;;;;0.10;0.10;;;;;;;;;;4895273;29;20054;-88
2022/08/22 05:46:43;;;;;;;0.10;0.10;;;;;;;;;;4895256;29;20048;-89
2022/08/22 05:49:15;;;;;;;0.10;0.10;;;;;;;;;;4879825;29;20294;-89
2022/08/22 05:51:47;;;;;;;0.10;0.10;;;;;;;;;;4882992;29;20108;-89
2022/08/22 05:54:13;;;;;;;;;;;;;;;;;;4899029;29;20040;-89
2022/08/22 05:56:44;;;;;;;0.10;0.10;;;;;;;;;;4883471;29;19919;-91
2022/08/22 05:59:14;;;;;;;0.10;0.10;;;;;;;;;;4898720;29;20511;-90
2022/08/22 06:01:45;;;;;;;0.10;0.10;;;;;;;;;;4883072;29;20452;-91
2022/08/22 06:04:17;;;;;;;0.10;0.10;;;;;;;;;;4882863;29;20164;-91
2022/08/22 06:06:50;;;;;;;0.10;0.10;;;;;;;;;;4883232;29;20523;-90
2022/08/22 06:09:26;;;;;;;0.10;0.10;;;;;;;;;;4898544;29;20045;-90
2022/08/22 06:12:05;;;;;;;0.10;0.10;;;;;;;;;;4898533;29;20420;-88
2022/08/22 06:14:32;;;;;;;0.10;0.10;;;;;;;;;;4882735;29;20048;-90
2022/08/22 06:17:04;;;;;;;0.10;0.10;;;;;;;;;;4883006;29;20107;-91
2022/08/22 06:19:31;;;;;;;0.13;0.13;;;;;;;;;;4883182;29;20049;-90
2022/08/22 06:21:57;;;;;;;0.10;0.10;;;;;;;;;;4898490;29;20378;-91
2022/08/22 06:24:23;;;;;;;0.10;0.10;;;;;;;;;;4882915;29;20063;-91
2022/08/22 06:26:50;;;;;;;0.10;0.10;;;;;;;;;;4882775;29;20048;-89
2022/08/22 06:29:19;;;;;;;0.10;0.10;;;;;;;;;;4897997;29;20381;-91
2022/08/22 06:31:46;;;;;;;0.10;0.10;;;;;;;;;;4882426;29;20041;-92
2022/08/22 06:34:16;;;;;;;0.10;0.10;;;;;;;;;;4898127;29;20044;-90
2022/08/22 06:36:44;;;;;;;0.10;0.10;;;;;;;;;;4897702;29;20111;-90
2022/08/22 06:39:26;;;;;;;0.10;0.10;;;;;;;;;;4882292;29;20048;-92
2022/08/22 06:42:04;;;;;;;0.20;0.20;;;;;;;;;;4898001;29;20391;-89
2022/08/22 06:44:49;;;;;;;0.10;0.10;;;;;;;;;;4897899;29;20361;-89
2022/08/22 06:47:23;;;;;;;0.10;0.10;;;;;;;;;;4882199;29;20081;-89
2022/08/22 06:49:50;;;;;;;0.10;0.10;;;;;;;;;;4882273;29;20076;-90
2022/08/22 06:52:22;;;;;;;0.10;0.10;;;;;;;;;;4882182;29;20049;-89
2022/08/22 06:54:48;;;;;;;0.10;0.10;;;;;;;;;;4897975;29;20480;-91
2022/08/22 06:57:25;;;;;;;0.10;0.10;;;;;;;;;;4881986;29;20041;-93
2022/08/22 06:59:51;;;;;;;0.10;0.10;;;;;;;;;;4897629;29;20115;-90
2022/08/22 07:02:21;;;;;;;0.10;0.10;;;;;;;;;;4881752;29;20377;-90
2022/08/22 07:04:48;;;;;;;0.10;0.10;;;;;;;;;;4897362;29;20425;-89
2022/08/22 07:07:15;;;;;;;0.28;0.28;;;;;;;;;;4881915;29;20048;-89
2022/08/22 07:09:41;;;;;;;0.10;0.10;;;;;;;;;;4897101;29;20076;-89
2022/08/22 07:12:18;;;;;;;0.10;0.10;;;;;;;;;;4897264;29;20083;-90
2022/08/22 07:14:45;;;;;;;0.15;0.15;;;;;;;;;;4897385;29;20040;-89
2022/08/22 07:17:18;;;;;;;0.10;0.10;;;;;;;;;;4896977;29;20044;-89
2022/08/22 07:19:54;;;;;;;0.10;0.10;;;;;;;;;;4882869;29;20100;-90
2022/08/22 07:22:22;;;;;;;0.10;0.10;;;;;;;;;;4897400;29;20132;-91
2022/08/22 07:24:50;;;;;;;0.10;0.10;;;;;;;;;;4881288;29;20519;-91
2022/08/22 07:27:29;;;;;;;0.10;0.10;;;;;;;;;;4896731;29;20048;-91
2022/08/22 07:30:03;;;;;;;0.10;0.10;;;;;;;;;;4896479;29;20040;-89
2022/08/22 07:32:42;;;;;;;0.10;0.10;;;;;;;;;;4881019;29;20088;-92
2022/08/22 07:35:14;;;;;;;0.17;0.17;;;;;;;;;;4896302;29;20131;-91
2022/08/22 07:37:45;;;;;;;0.10;0.10;;;;;;;;;;4896762;29;20104;-94
2022/08/22 07:40:30;;;;;;;0.10;0.10;;;;;;;;;;4896992;29;20127;-92
2022/08/22 07:43:08;;;;;;;0.10;0.10;;;;;;;;;;4882764;29;20045;-95
2022/08/22 07:45:37;;;;;;;0.10;0.10;;;;;;;;;;4896540;29;20428;-92
2022/08/22 07:48:03;;;;;;;0.10;0.10;;;;;;;;;;4880619;29;20164;-91
2022/08/22 07:50:38;;;;;;;0.10;0.10;;;;;;;;;;4880767;29;20387;-91
2022/08/22 07:53:27;;;;;;;0.10;0.10;;;;;;;;;;4895840;29;20049;-89
2022/08/22 07:55:54;;;;;;;0.10;0.10;;;;;;;;;;4860532;29;20433;-92
2022/08/22 07:58:21;;;;;;;0.10;0.10;;;;;;;;;;4896534;29;20059;-92
2022/08/22 08:00:47;;;;;;;0.10;0.10;;;;;;;;;;4896114;29;20063;-92
2022/08/22 08:03:13;;;;;;;0.20;0.20;;;;;;;;;;4896255;29;20040;-92
2022/08/22 08:05:40;;;;;;;0.10;0.10;;;;;;;;;;4880525;29;20040;-90
2022/08/22 08:08:08;;;;;;;0.10;0.10;;;;;;;;;;4896106;29;20504;-92
2022/08/22 08:10:34;;;;;;;0.10;0.10;;;;;;;;;;4881075;29;20488;-92
2022/08/22 08:13:04;;;;;;;0.10;0.10;;;;;;;;;;4880162;29;20047;-94
2022/08/22 08:15:31;;;;;;;0.10;0.10;;;;;;;;;;4896099;29;20500;-91
2022/08/22 08:17:58;;;;;;;0.10;0.10;;;;;;;;;;4881140;29;20503;-92
2022/08/22 08:20:25;;;;;;;0.10;0.10;;;;;;;;;;4896267;29;20130;-92
2022/08/22 08:22:52;;;;;;;0.10;0.10;;;;;;;;;;4880783;29;20052;-91
2022/08/22 08:25:19;;;;;;;0.10;0.10;;;;;;;;;;4896072;29;20055;-91
2022/08/22 08:30:37;;;;;;;0.10;0.10;;;;;;;;;;4880382;29;20049;-90
2022/08/22 08:33:03;;;;;;;0.10;0.10;;;;;;;;;;4879610;29;20044;-90
2022/08/22 08:35:38;;;;;;;0.10;0.10;;;;;;;;;;4894748;29;20061;-88
2022/08/22 08:38:15;;;;;;;0.10;0.10;;;;;;;;;;4895835;29;20492;-89
2022/08/22 08:40:50;;;;;;;0.10;0.10;;;;;;;;;;4899471;29;20380;-89
2022/08/22 08:43:33;;;;;;;0.10;0.10;;;;;;;;;;4914753;29;20048;-88
2022/08/22 08:46:06;;;;;;;0.13;0.13;;;;;;;;;;4898707;29;20048;-87
2022/08/22 08:48:44;;;;;;;0.10;0.10;;;;;;;;;;4898374;29;20044;-87
2022/08/22 08:51:22;;;;;;;0.10;0.10;;;;;;;;;;4914630;29;20436;-89
2022/08/22 08:54:00;;;;;;;0.10;0.10;;;;;;;;;;4914650;29;20414;-89
2022/08/22 08:56:35;;;;;;;0.10;0.10;;;;;;;;;;4899031;29;20388;-89
2022/08/22 08:59:04;;;;;;;0.10;0.10;;;;;;;;;;4914246;29;20514;-89
2022/08/22 09:01:31;;;;;;;0.10;0.10;;;;;;;;;;4898588;29;20047;-88
2022/08/22 09:04:01;;;;;;;0.13;0.13;;;;;;;;;;4914424;29;20091;-90
2022/08/22 09:06:34;;;;;;;0.30;0.30;;;;;;;;;;4914318;29;20051;-90
2022/08/22 09:09:03;;;;;;;0.10;0.10;;;;;;;;;;4898115;29;20044;-89
2022/08/22 09:11:32;;;;;;;0.10;0.10;;;;;;;;;;4898584;29;20071;-90
2022/08/22 09:13:58;;;;;;;0.10;0.10;;;;;;;;;;4898642;29;20379;-90
2022/08/22 09:16:28;;;;;;;0.10;0.10;;;;;;;;;;4914160;29;20068;-89
2022/08/22 09:19:03;;;;;;;0.10;0.10;;;;;;;;;;4914223;29;20059;-89
2022/08/22 09:21:49;;;;;;;0.10;0.10;;;;;;;;;;4899186;29;20048;-90
2022/08/22 09:24:34;;;;;;;0.10;0.10;;;;;;;;;;4895155;29;20123;-91
2022/08/22 09:27:01;;;;;;;0.10;0.10;;;;;;;;;;4917904;29;20522;-92
2022/08/22 09:29:32;;;;;;;0.10;0.10;;;;;;;;;;4918093;29;20107;-92
2022/08/22 09:32:10;;;;;;;0.10;0.10;;;;;;;;;;4917840;29;20040;-91
2022/08/22 09:34:40;;;;;;;0.10;0.10;;;;;;;;;;4901845;29;20455;-89
2022/08/22 09:37:15;;;;;;;0.20;0.20;;;;;;;;;;4917633;29;20044;-89
2022/08/22 09:40:00;;;;;;;0.10;0.10;;;;;;;;;;4917704;29;20044;-91
2022/08/22 09:42:26;;;;;;;0.10;0.10;;;;;;;;;;4902639;29;20439;-89
2022/08/22 09:45:07;;;;;;;0.10;0.10;;;;;;;;;;4917573;29;20157;-89
2022/08/22 09:47:34;;;;;;;0.10;0.10;;;;;;;;;;4901987;29;20407;-90
2022/08/22 09:50:03;;;;;;;0.10;0.10;;;;;;;;;;4901759;29;20036;-90
2022/08/22 09:52:39;;;;;;;0.10;0.10;;;;;;;;;;4902132;29;20395;-91
2022/08/22 09:55:08;;;;;;;0.10;0.10;;;;;;;;;;4903227;29;20499;-93
2022/08/22 09:57:39;;;;;;;0.10;0.10;;;;;;;;;;4903419;29;20051;-91
2022/08/22 10:00:08;;;;;;;0.20;0.20;;;;;;;;;;4917769;29;20165;-89
2022/08/22 10:02:36;;;;;;;0.20;0.20;;;;;;;;;;4917243;29;20044;-90
2022/08/22 10:05:07;;;;;;;0.20;0.20;;;;;;;;;;4917081;29;20039;-90
2022/08/22 10:07:36;;;;;;;0.10;0.10;;;;;;;;;;4901252;29;20044;-90
2022/08/22 10:10:21;;;;;;;0.10;0.10;;;;;;;;;;4892676;29;20039;-88
2022/08/22 10:12:46;;;;;;;0.10;0.10;;;;;;;;;;4901382;29;20064;-89
2022/08/22 10:15:22;;;;;;;0.10;0.10;;;;;;;;;;4901295;29;20068;-89
2022/08/22 10:17:57;;;;;;;0.10;0.10;;;;;;;;;;4901213;29;20063;-90
2022/08/22 10:20:26;;;;;;;0.15;0.15;;;;;;;;;;4916850;29;20044;-91
2022/08/22 10:22:58;;;;;;;0.10;0.10;;;;;;;;;;4916786;29;20055;-91
2022/08/22 10:25:24;;;;;;;0.10;0.10;;;;;;;;;;4901015;29;20048;-90
2022/08/22 10:27:53;;;;;;;0.20;0.20;;;;;;;;;;4901078;29;20048;-89
2022/08/22 10:30:19;;;;;;;0.10;0.10;;;;;;;;;;4900936;29;20476;-88
2022/08/22 10:32:47;;;;;;;0.20;0.20;;;;;;;;;;4916702;29;20059;-87
2022/08/22 10:35:22;;;;;;;0.10;0.10;;;;;;;;;;4931720;29;20055;-87
2022/08/22 10:37:50;;;;;;;0.10;0.10;;;;;;;;;;4916595;29;20048;-87
2022/08/22 10:40:18;;;;;;;0.10;0.10;;;;;;;;;;4916566;29;20050;-88
2022/08/22 10:42:44;;;;;;;0.10;0.10;;;;;;;;;;4916466;29;20123;-88
2022/08/22 10:45:19;;;;;;;0.10;0.10;;;;;;;;;;4900713;29;20075;-88
2022/08/22 10:48:05;;;;;;;0.10;0.10;;;;;;;;;;4916524;29;20099;-87
2022/08/22 10:50:38;;;;;;;0.20;0.20;;;;;;;;;;4900693;29;20486;-88
2022/08/22 10:53:32;;;;;;;0.10;0.10;;;;;;;;;;4905449;29;20396;-88
2022/08/22 10:56:13;;;;;;;0.10;0.10;;;;;;;;;;4895137;29;20124;-87
2022/08/22 10:58:59;;;;;;;0.10;0.10;;;;;;;;;;4881990;29;20155;-88
2022/08/22 11:01:27;;;;;;;0.10;0.10;;;;;;;;;;4907034;29;20068;-87
2022/08/22 11:04:12;;;;;;;0.10;0.10;;;;;;;;;;4913445;29;20094;-92
2022/08/22 11:06:46;;;;;;;0.10;0.10;;;;;;;;;;4882118;29;20064;-90
2022/08/22 11:09:21;;;;;;;0.10;0.10;;;;;;;;;;4881728;29;20056;-90
2022/08/22 11:12:07;;;;;;;0.10;0.10;;;;;;;;;;4881588;29;20391;-90
2022/08/22 11:14:43;;;;;;;0.10;0.10;;;;;;;;;;4906373;29;20048;-90
2022/08/22 11:17:12;;;;;;;0.10;0.10;;;;;;;;;;4897583;29;20131;-91
2022/08/22 11:19:38;;;;;;;0.20;0.20;;;;;;;;;;4928724;29;20503;-88
2022/08/22 11:22:11;;;;;;;0.17;0.17;;;;;;;;;;4881744;29;20072;-87
2022/08/22 11:24:36;;;;;;;;;;;;;;;;;;4881835;29;20448;-88
2022/08/22 11:27:13;;;;;;;0.10;0.10;;;;;;;;;;4881129;29;19919;-87
2022/08/22 11:29:49;;;;;;;0.10;0.10;;;;;;;;;;4896539;29;20080;-89
2022/08/22 11:32:35;;;;;;;0.10;0.10;;;;;;;;;;4896919;29;20092;-87
2022/08/22 11:35:06;;;;;;;0.10;0.10;;;;;;;;;;4880802;29;20120;-87
2022/08/22 11:37:43;;;;;;;0.17;0.17;;;;;;;;;;4881039;29;20097;-87
2022/08/22 11:40:19;;;;;;;0.10;0.10;;;;;;;;;;4896508;29;20045;-88
2022/08/22 11:43:00;;;;;;;0.10;0.10;;;;;;;;;;4896591;29;20083;-88
2022/08/22 11:45:27;;;;;;;0.20;0.20;;;;;;;;;;4896783;29;20052;-87
2022/08/22 11:48:04;;;;;;;0.10;0.10;;;;;;;;;;4895307;29;20041;-87
2022/08/22 11:50:35;;;;;;;0.10;0.10;;;;;;;;;;4896267;29;20069;-88
2022/08/22 11:53:04;;;;;;;0.10;0.10;;;;;;;;;;4896664;29;20096;-87
2022/08/22 11:55:32;;;;;;;0.10;0.10;;;;;;;;;;4880712;29;20097;-88
2022/08/22 11:58:08;;;;;;;0.10;0.10;;;;;;;;;;4880611;29;20131;-89
2022/08/22 12:01:01;;;;;;;0.10;0.10;;;;;;;;;;4895905;29;20058;-88
2022/08/22 12:03:27;;;;;;;0.10;0.10;;;;;;;;;;4895341;29;20105;-87
2022/08/22 12:05:58;;;;;;;0.20;0.20;;;;;;;;;;4896211;29;20100;-87
2022/08/22 12:08:34;;;;;;;0.10;0.10;;;;;;;;;;4880472;29;20048;-88
2022/08/22 12:11:10;;;;;;;0.10;0.10;;;;;;;;;;4880854;29;20052;-88
2022/08/22 12:13:49;;;;;;;0.10;0.10;;;;;;;;;;4884875;29;20184;-88
2022/08/22 12:16:31;;;;;;;0.10;0.10;;;;;;;;;;4880647;29;20072;-88
2022/08/22 12:19:16;;;;;;;0.20;0.20;;;;;;;;;;4880577;29;20162;-88
2022/08/22 12:21:50;;;;;;;0.10;0.10;;;;;;;;;;4880501;29;20052;-88
2022/08/22 12:24:23;;;;;;;0.10;0.10;;;;;;;;;;4880520;29;20052;-87
2022/08/22 12:26:52;;;;;;;0.10;0.10;;;;;;;;;;4880484;29;20092;-87
2022/08/22 12:29:27;;;;;;;0.20;0.20;;;;;;;;;;4880310;29;20400;-87
2022/08/22 12:32:12;;;;;;;0.10;0.10;;;;;;;;;;4880361;29;20037;-88
2022/08/22 12:34:44;;;;;;;0.10;0.10;;;;;;;;;;4880485;29;20445;-87
2022/08/22 12:37:14;;;;;;;0.10;0.10;;;;;;;;;;4880362;29;20068;-89
2022/08/22 12:39:55;;;;;;;0.10;0.10;;;;;;;;;;4880197;29;20484;-88
2022/08/22 12:42:24;;;;;;;0.10;0.10;;;;;;;;;;4894961;29;20080;-89
2022/08/22 12:44:56;;;;;;;0.20;0.20;;;;;;;;;;4880376;29;20040;-88
2022/08/22 12:47:35;;;;;;;0.10;0.10;;;;;;;;;;4911578;29;20036;-90
2022/08/22 12:50:25;;;;;;;0.10;0.10;;;;;;;;;;4880115;29;20443;-90
2022/08/22 12:52:51;;;;;;;0.10;0.10;;;;;;;;;;4855738;29;20483;-89
2022/08/22 12:55:29;;;;;;;0.10;0.10;;;;;;;;;;4879994;29;20079;-90
2022/08/22 12:58:01;;;;;;;0.20;0.20;;;;;;;;;;4880154;29;20057;-90
2022/08/22 13:00:33;;;;;;;0.10;0.10;;;;;;;;;;4915154;29;20045;-90
2022/08/22 13:03:00;;;;;;;0.10;0.10;;;;;;;;;;4883811;29;20049;-88
2022/08/22 13:05:27;;;;;;;0.10;0.10;;;;;;;;;;4883775;29;20041;-90
2022/08/22 13:07:57;;;;;;;0.10;0.10;;;;;;;;;;4899358;29;20445;-89
2022/08/22 13:10:52;;;;;;;0.10;0.10;;;;;;;;;;4899349;29;20377;-89
2022/08/22 13:13:29;;;;;;;0.10;0.10;;;;;;;;;;4875822;29;20052;-90
2022/08/22 13:15:59;;;;;;;0.10;0.10;;;;;;;;;;4882593;29;20044;-88
2022/08/22 13:18:26;;;;;;;0.10;0.10;;;;;;;;;;4899370;29;20151;-87
2022/08/22 13:20:53;;;;;;;0.20;0.20;;;;;;;;;;4898945;29;20089;-88
2022/08/22 13:23:26;;;;;;;0.10;0.10;;;;;;;;;;4883425;29;20496;-89
2022/08/22 13:25:57;;;;;;;0.10;0.10;;;;;;;;;;4883310;29;20060;-91
2022/08/22 13:28:23;;;;;;;0.20;0.20;;;;;;;;;;4883560;29;20080;-92
2022/08/22 13:30:50;;;;;;;0.10;0.10;;;;;;;;;;4883353;29;20047;-88
2022/08/22 13:33:22;;;;;;;0.10;0.10;;;;;;;;;;4883344;29;20049;-90
2022/08/22 13:35:49;;;;;;;0.20;0.20;;;;;;;;;;4881178;29;20055;-89
2022/08/22 13:38:21;;;;;;;0.15;0.15;;;;;;;;;;4883495;29;20060;-90
2022/08/22 13:40:48;;;;;;;0.10;0.10;;;;;;;;;;4883202;29;20492;-88
2022/08/22 13:43:17;;;;;;;0.10;0.10;;;;;;;;;;4898901;29;20147;-90
2022/08/22 13:45:48;;;;;;;0.10;0.10;;;;;;;;;;4883065;29;20052;-89
2022/08/22 13:48:14;;;;;;;0.10;0.10;;;;;;;;;;4883217;29;20048;-90
2022/08/22 13:50:59;;;;;;;0.10;0.10;;;;;;;;;;4883290;29;20108;-90
2022/08/22 13:53:38;;;;;;;0.20;0.20;;;;;;;;;;4882926;29;20040;-89
2022/08/22 13:56:06;;;;;;;0.10;0.10;;;;;;;;;;4898498;29;20036;-89
2022/08/22 13:58:40;;;;;;;0.10;0.10;;;;;;;;;;4898439;29;20045;-91
2022/08/22 14:01:15;;;;;;;0.10;0.10;;;;;;;;;;4898687;29;20048;-92
2022/08/22 14:03:47;;;;;;;0.10;0.10;;;;;;;;;;4882822;29;20874;-91
2022/08/22 14:06:22;;;;;;;0.15;0.15;;;;;;;;;;4883250;29;20156;-92
2022/08/22 14:08:48;;;;;;;0.10;0.10;;;;;;;;;;4898485;29;20068;-91
2022/08/22 14:11:34;;;;;;;0.10;0.10;;;;;;;;;;4881710;29;20059;-91
2022/08/22 14:14:01;;;;;;;0.20;0.20;;;;;;;;;;4867051;29;20050;-91
2022/08/22 14:16:32;;;;;;;0.10;0.10;;;;;;;;;;4898177;29;20041;-90
2022/08/22 14:18:58;;;;;;;0.10;0.10;;;;;;;;;;4898031;29;20048;-90
2022/08/22 14:21:34;;;;;;;0.10;0.10;;;;;;;;;;4898098;29;20139;-90
2022/08/22 14:24:04;;;;;;;0.20;0.20;;;;;;;;;;4898032;29;20064;-90
2022/08/22 14:26:34;;;;;;;0.10;0.10;;;;;;;;;;4882389;29;20049;-90
2022/08/22 14:29:00;;;;;;;0.10;0.10;;;;;;;;;;4885385;29;20127;-89
2022/08/22 14:31:26;;;;;;;0.20;0.20;;;;;;;;;;4917287;29;20040;-90
2022/08/22 14:34:09;;;;;;;0.20;0.20;;;;;;;;;;4901074;29;20548;-89
2022/08/22 14:36:42;;;;;;;0.20;0.20;;;;;;;;;;4900619;29;20143;-89
2022/08/22 14:39:10;;;;;;;0.10;0.10;;;;;;;;;;4916962;29;20436;-89
2022/08/22 14:41:38;;;;;;;0.10;0.10;;;;;;;;;;4900828;29;20048;-89
2022/08/22 14:44:22;;;;;;;0.10;0.10;;;;;;;;;;4916498;29;20079;-89
2022/08/22 14:46:49;;;;;;;0.10;0.10;;;;;;;;;;4932468;29;20040;-89
2022/08/22 14:49:19;;;;;;;0.10;0.10;;;;;;;;;;4900737;29;20372;-89
2022/08/22 14:52:04;;;;;;;0.20;0.20;;;;;;;;;;4932687;29;20047;-89
2022/08/22 14:54:30;;;;;;;0.13;0.13;;;;;;;;;;4900688;29;20044;-89
2022/08/22 14:56:56;;;;;;;0.13;0.13;;;;;;;;;;4904723;29;20052;-90
2022/08/22 14:59:34;;;;;;;0.10;0.10;;;;;;;;;;4897450;29;20511;-90
2022/08/22 15:02:02;;;;;;;0.10;0.10;;;;;;;;;;4897511;29;20135;-89
2022/08/22 15:04:35;;;;;;;0.20;0.20;;;;;;;;;;4897142;29;20131;-91
2022/08/22 15:07:01;;;;;;;0.10;0.10;;;;;;;;;;4897251;29;20059;-90
2022/08/22 15:09:29;;;;;;;0.10;0.10;;;;;;;;;;4896880;29;20404;-90
2022/08/22 15:11:55;;;;;;;0.20;0.20;;;;;;;;;;4897547;29;20040;-91
2022/08/22 15:14:41;;;;;;;0.20;0.20;;;;;;;;;;4896829;29;20040;-90
2022/08/22 15:17:08;;;;;;;0.15;0.15;;;;;;;;;;4897058;29;20068;-91
2022/08/22 15:19:38;;;;;;;0.13;0.13;;;;;;;;;;4897377;29;20120;-91
2022/08/22 15:22:07;;;;;;;0.10;0.10;;;;;;;;;;4897086;29;20048;-91
2022/08/22 15:24:33;;;;;;;0.20;0.20;;;;;;;;;;4896803;29;20056;-89